createdAt,value
2019-01-19T00:00:29.164Z,67.52
2019-01-19T00:03:37.570Z,67.04
2019-01-19T00:06:47.069Z,66.92
2019-01-19T00:16:32.368Z,64.99
2019-01-19T00:19:41.891Z,67.28
2019-01-19T00:23:10.677Z,69.36
2019-01-19T00:26:41.860Z,70.52
2019-01-19T00:29:46.798Z,71.10
2019-01-19T00:36:01.026Z,71.80
2019-01-19T00:39:10.546Z,72.02
2019-01-19T00:42:19.960Z,71.57
2019-01-19T00:45:34.873Z,70.68
2019-01-19T00:48:47.359Z,70.43
2019-01-19T00:51:56.758Z,70.12
2019-01-19T00:55:25.489Z,69.96
2019-01-19T00:58:47.814Z,70.10
2019-01-19T01:02:16.565Z,69.06
2019-01-19T01:05:25.450Z,67.19
2019-01-19T01:08:33.697Z,67.70
2019-01-19T01:11:43.119Z,69.38
2019-01-19T01:14:52.533Z,71.05
2019-01-19T01:18:01.965Z,71.59
2019-01-19T01:21:11.848Z,69.21
2019-01-19T01:24:21.246Z,64.92
2019-01-19T01:27:27.208Z,67.20
2019-01-19T01:30:36.671Z,70.17
2019-01-19T01:33:46.115Z,70.76
2019-01-19T01:43:26.768Z,68.95
2019-01-19T01:46:55.522Z,69.41
2019-01-19T01:49:51.542Z,68.44
2019-01-19T01:53:08.969Z,64.95
2019-01-19T01:56:31.542Z,67.31
2019-01-19T01:59:41.060Z,70.30
2019-01-19T02:05:56.711Z,68.68
2019-01-19T02:12:27.226Z,61.69
2019-01-19T02:18:44.657Z,64.22
2019-01-19T02:21:54.069Z,67.64
2019-01-19T02:25:22.746Z,67.84
2019-01-19T02:28:33.799Z,65.03
2019-01-19T02:31:43.193Z,67.68
2019-01-19T02:41:21.745Z,72.44
2019-01-19T02:44:31.214Z,73.28
2019-01-19T02:47:40.654Z,73.77
2019-01-19T02:50:59.531Z,73.78
2019-01-19T02:54:27.115Z,74.68
2019-01-19T02:57:36.521Z,74.29
2019-01-19T03:00:19.669Z,73.87
2019-01-19T03:03:29.248Z,74.37
2019-01-19T03:06:58.093Z,74.23
2019-01-19T03:10:26.854Z,74.27
2019-01-19T03:16:43.553Z,70.03
2019-01-19T03:20:12.280Z,70.14
2019-01-19T03:23:21.703Z,70.75
2019-01-19T03:26:50.454Z,68.94
2019-01-19T03:29:59.847Z,68.62
2019-01-19T03:33:09.328Z,69.95
2019-01-19T03:36:18.758Z,67.76
2019-01-19T03:39:28.975Z,65.10
2019-01-19T03:42:44.136Z,63.32
2019-01-19T03:46:13.872Z,69.16
2019-01-19T03:49:42.633Z,66.44
2019-01-19T03:53:11.938Z,67.92
2019-01-19T03:56:21.508Z,69.96
2019-01-19T03:59:57.925Z,67.61
2019-01-19T04:03:07.337Z,63.28
2019-01-19T04:06:40.416Z,63.53
2019-01-19T04:09:49.845Z,64.26
2019-01-19T04:15:56.473Z,66.06
2019-01-19T04:22:40.795Z,66.02
2019-01-19T04:25:33.487Z,66.41
2019-01-19T04:33:30.615Z,62.78
2019-01-19T04:41:26.480Z,63.74
2019-01-19T04:44:07.779Z,63.09
2019-01-19T04:46:38.982Z,62.58
2019-01-19T04:52:12.780Z,63.84
2019-01-19T05:01:08.528Z,68.71
2019-01-19T05:03:59.223Z,71.81
2019-01-19T05:06:30.784Z,73.30
2019-01-19T05:09:13.135Z,73.96
2019-01-19T05:12:03.792Z,73.15
2019-01-19T05:23:47.105Z,73.49
2019-01-19T05:26:56.810Z,74.93
2019-01-19T05:29:49.815Z,75.49
2019-01-19T05:35:45.140Z,76.54
2019-01-19T05:41:25.250Z,77.30
2019-01-19T05:52:44.541Z,73.80
2019-01-19T05:55:16.944Z,74.09
2019-01-19T05:57:48.347Z,74.97
2019-01-19T06:08:53.665Z,65.94
2019-01-19T06:18:39.294Z,62.21
2019-01-19T06:23:53.696Z,60.53
2019-01-19T06:33:02.960Z,68.08
2019-01-19T06:35:46.407Z,67.58
2019-01-19T06:38:37.228Z,65.70
2019-01-19T06:41:36.349Z,62.31
2019-01-19T06:44:07.677Z,60.58
2019-01-19T06:50:40.002Z,59.32
2019-01-19T06:53:11.248Z,59.21
2019-01-19T06:55:42.622Z,59.51
2019-01-19T07:02:31.398Z,59.15
2019-01-19T07:05:39.654Z,60.46
2019-01-19T07:08:10.940Z,65.35
2019-01-19T07:10:42.185Z,64.50
2019-01-19T07:17:05.982Z,64.17
2019-01-19T07:19:37.185Z,63.24
2019-01-19T07:23:10.275Z,63.11
2019-01-19T07:29:35.415Z,62.71
2019-01-19T07:38:40.224Z,60.30
2019-01-19T07:41:11.461Z,59.57
2019-01-19T07:44:10.339Z,59.00
2019-01-19T07:58:13.082Z,66.26
2019-01-19T08:01:12.383Z,64.04
2019-01-19T08:04:08.672Z,62.40
2019-01-19T08:06:39.908Z,60.29
2019-01-19T08:09:11.168Z,59.45
2019-01-19T08:17:54.928Z,56.26
2019-01-19T08:20:56.495Z,56.08
2019-01-19T08:23:28.125Z,55.30
2019-01-19T08:25:59.760Z,54.64
2019-01-19T08:28:31.384Z,53.98
2019-01-19T08:36:58.105Z,57.04
2019-01-19T08:39:29.516Z,59.75
2019-01-19T08:45:45.289Z,56.78
2019-01-19T08:48:47.326Z,53.88
2019-01-19T08:51:18.754Z,54.13
2019-01-19T08:53:49.994Z,53.14
2019-01-19T08:56:42.408Z,52.37
2019-01-19T08:59:13.946Z,54.16
2019-01-19T09:01:45.272Z,54.75
2019-01-19T09:04:16.648Z,54.09
2019-01-19T09:07:33.265Z,54.74
2019-01-19T09:10:16.075Z,54.91
2019-01-19T09:12:47.463Z,57.29
2019-01-19T09:15:19.352Z,57.58
2019-01-19T09:17:50.866Z,56.56
2019-01-19T09:20:22.734Z,56.35
2019-01-19T09:29:22.798Z,55.24
2019-01-19T09:34:47.636Z,54.75
2019-01-19T09:37:52.694Z,57.24
2019-01-19T09:43:06.351Z,54.22
2019-01-19T09:46:16.256Z,52.44
2019-01-19T09:49:06.895Z,51.87
2019-01-19T09:54:40.570Z,52.94
2019-01-19T09:57:11.775Z,54.64
2019-01-19T10:02:45.425Z,54.78
2019-01-19T10:05:35.964Z,53.66
2019-01-19T10:13:41.906Z,53.35
2019-01-19T10:16:13.450Z,52.36
2019-01-19T10:19:02.380Z,49.43
2019-01-19T10:24:18.628Z,49.78
2019-01-19T10:27:09.232Z,50.13
2019-01-19T10:35:45.624Z,50.63
2019-01-19T10:44:03.003Z,51.19
2019-01-19T10:46:34.208Z,49.13
2019-01-19T10:52:07.987Z,48.71
2019-01-19T10:54:58.568Z,50.99
2019-01-19T10:57:49.542Z,52.59
2019-01-19T11:03:25.204Z,52.23
2019-01-19T11:14:09.231Z,55.67
2019-01-19T11:16:40.447Z,55.52
2019-01-19T11:22:15.638Z,58.35
2019-01-19T11:25:22.499Z,55.77
2019-01-19T11:36:23.410Z,55.56
2019-01-19T11:41:40.337Z,56.56
2019-01-19T11:44:11.583Z,55.65
2019-01-19T11:46:42.810Z,55.78
2019-01-19T11:58:10.412Z,56.95
2019-01-19T12:04:05.736Z,56.39
2019-01-19T12:06:56.269Z,54.85
2019-01-19T12:12:29.691Z,54.61
2019-01-19T12:18:37.172Z,53.28
2019-01-19T12:23:50.572Z,55.83
2019-01-19T12:32:28.659Z,57.81
2019-01-19T12:37:45.143Z,56.36
2019-01-19T12:40:35.699Z,55.55
2019-01-19T12:43:26.558Z,57.47
2019-01-19T12:46:17.129Z,56.27
2019-01-19T12:49:07.727Z,57.07
2019-01-19T12:52:08.478Z,55.26
2019-01-19T12:54:42.018Z,54.15
2019-01-19T12:57:52.063Z,53.72
2019-01-19T13:00:42.981Z,54.68
2019-01-19T13:03:33.564Z,53.95
2019-01-19T13:07:02.427Z,55.14
2019-01-19T13:10:31.199Z,54.92
2019-01-19T13:13:45.525Z,53.21
2019-01-19T13:17:14.354Z,54.68
2019-01-19T13:20:50.309Z,54.69
2019-01-19T13:24:01.060Z,54.34
2019-01-19T13:27:21.208Z,55.27
2019-01-19T13:30:07.364Z,57.64
2019-01-19T13:36:24.279Z,59.33
2019-01-19T13:39:34.086Z,60.90
2019-01-19T13:43:02.920Z,61.30
2019-01-19T13:46:31.784Z,61.63
2019-01-19T13:50:00.576Z,61.59
2019-01-19T13:56:49.881Z,61.05
2019-01-19T14:00:04.026Z,61.57
2019-01-19T14:03:25.960Z,61.87
2019-01-19T14:06:49.439Z,62.89
2019-01-19T14:10:01.207Z,63.07
2019-01-19T14:13:30.152Z,63.33
2019-01-19T14:16:58.933Z,63.06
2019-01-19T14:20:27.451Z,62.22
2019-01-19T14:23:43.086Z,61.57
2019-01-19T14:26:53.360Z,63.27
2019-01-19T14:30:23.894Z,63.41
2019-01-19T14:33:52.784Z,64.22
2019-01-19T14:37:22.021Z,64.19
2019-01-19T14:44:08.311Z,65.65
2019-01-19T14:47:37.130Z,66.42
2019-01-19T14:51:06.033Z,66.76
2019-01-19T14:54:34.848Z,66.45
2019-01-19T14:58:03.753Z,66.19
2019-01-19T15:01:32.548Z,65.61
2019-01-19T15:04:46.519Z,65.25
2019-01-19T15:07:56.054Z,66.43
2019-01-19T15:11:25.019Z,65.90
2019-01-19T15:14:50.025Z,66.49
2019-01-19T15:18:02.498Z,67.64
2019-01-19T15:21:13.618Z,67.78
2019-01-19T15:24:37.404Z,67.81
2019-01-19T15:27:47.625Z,68.67
2019-01-19T15:31:16.522Z,68.47
2019-01-19T15:34:45.305Z,68.61
2019-01-19T15:38:18.806Z,68.73
2019-01-19T15:41:47.574Z,68.36
2019-01-19T15:45:16.342Z,69.23
2019-01-19T15:48:45.151Z,69.37
2019-01-19T15:52:13.920Z,69.35
2019-01-19T15:55:41.926Z,69.02
2019-01-19T15:58:51.779Z,69.63
2019-01-19T16:02:20.608Z,69.90
2019-01-19T16:05:23.250Z,70.33
2019-01-19T16:08:32.059Z,69.77
2019-01-19T16:11:43.711Z,69.52
2019-01-19T16:15:12.459Z,69.82
2019-01-19T16:18:36.122Z,68.97
2019-01-19T16:22:04.866Z,68.47
2019-01-19T16:28:46.052Z,68.38
2019-01-19T16:32:14.818Z,67.35
2019-01-19T16:35:43.579Z,66.39
2019-01-19T16:38:42.668Z,66.19
2019-01-19T16:42:11.520Z,67.08
2019-01-19T16:45:40.511Z,66.56
2019-01-19T16:48:50.221Z,66.95
2019-01-19T16:52:19.728Z,67.38
2019-01-19T16:55:49.018Z,67.18
2019-01-19T16:58:51.656Z,67.32
2019-01-19T17:02:02.648Z,68.00
2019-01-19T17:05:36.298Z,67.41
2019-01-19T17:08:47.924Z,67.22
2019-01-19T17:12:18.737Z,67.48
2019-01-19T17:15:47.793Z,67.29
2019-01-19T17:19:17.370Z,68.49
2019-01-19T17:22:46.340Z,68.95
2019-01-19T17:26:15.123Z,70.04
2019-01-19T17:29:45.596Z,69.71
2019-01-19T17:32:48.702Z,70.55
2019-01-19T17:35:58.642Z,71.37
2019-01-19T17:39:27.419Z,71.36
2019-01-19T17:42:56.749Z,71.24
2019-01-19T17:46:26.545Z,71.66
2019-01-19T17:49:55.422Z,71.60
2019-01-19T17:53:24.837Z,71.55
2019-01-19T17:56:40.471Z,71.65
2019-01-19T18:03:19.241Z,70.91
2019-01-19T18:06:47.991Z,72.69
2019-01-19T18:10:30.503Z,72.41
2019-01-19T18:13:59.271Z,71.96
2019-01-19T18:17:28.039Z,72.41
2019-01-19T18:20:56.809Z,71.89
2019-01-19T18:24:26.221Z,71.41
2019-01-19T18:27:55.855Z,71.01
2019-01-19T18:31:00.472Z,71.39
2019-01-19T18:34:19.703Z,72.37
2019-01-19T18:37:48.510Z,72.87
2019-01-19T18:41:17.829Z,72.25
2019-01-19T18:44:47.454Z,71.01
2019-01-19T18:51:23.647Z,72.42
2019-01-19T18:54:52.400Z,72.66
2019-01-19T19:01:37.273Z,74.22
2019-01-19T19:08:45.005Z,74.22
2019-01-19T19:11:40.992Z,74.59
2019-01-19T19:14:56.108Z,73.83
2019-01-19T19:21:47.961Z,74.90
2019-01-19T19:25:17.039Z,75.22
2019-01-19T19:28:44.531Z,74.82
2019-01-19T19:31:53.959Z,75.13
2019-01-19T19:35:23.624Z,74.64
2019-01-19T19:38:52.382Z,74.70
2019-01-19T19:42:21.148Z,74.24
2019-01-19T19:45:25.085Z,75.10
2019-01-19T19:48:34.943Z,74.67
2019-01-19T19:51:44.713Z,75.05
2019-01-19T19:54:50.338Z,74.82
2019-01-19T19:58:06.070Z,74.89
2019-01-19T20:00:56.691Z,74.24
2019-01-19T20:03:47.252Z,73.10
2019-01-19T20:06:37.869Z,72.33
2019-01-19T20:09:21.092Z,73.03
2019-01-19T20:15:14.207Z,71.92
2019-01-19T20:18:15.927Z,71.15
2019-01-19T20:34:34.749Z,69.04
2019-01-19T20:43:25.820Z,67.50
2019-01-19T20:46:16.377Z,67.78
2019-01-19T20:49:07.017Z,67.11
2019-01-19T20:55:00.862Z,67.14
2019-01-19T21:00:34.595Z,68.88
2019-01-19T21:11:57.852Z,77.57
2019-01-19T21:14:48.677Z,74.81
2019-01-19T21:20:24.153Z,71.25
2019-01-19T21:23:16.587Z,68.98
2019-01-19T21:26:07.175Z,68.76
2019-01-19T21:28:57.828Z,68.18
2019-01-19T21:31:48.396Z,69.04
2019-01-19T21:40:22.559Z,68.08
2019-01-19T21:42:56.185Z,68.06
2019-01-19T21:45:27.447Z,67.30
2019-01-19T21:48:37.117Z,66.56
2019-01-19T21:51:46.787Z,65.00
2019-01-19T21:54:37.401Z,66.83
2019-01-19T21:57:28.012Z,64.86
2019-01-19T22:00:18.762Z,65.07
2019-01-19T22:11:22.262Z,65.50
2019-01-19T22:14:12.867Z,68.15
2019-01-19T22:17:03.573Z,68.12
2019-01-19T22:19:34.836Z,70.83
2019-01-19T22:22:25.425Z,69.55
2019-01-19T22:25:16.312Z,67.24
2019-01-19T22:28:06.877Z,65.62
2019-01-19T22:30:57.487Z,64.33
2019-01-19T22:36:32.398Z,63.15
2019-01-19T22:39:14.256Z,63.44
2019-01-19T22:48:05.385Z,64.67
2019-01-19T22:50:58.117Z,64.96
2019-01-19T22:56:34.627Z,65.16
2019-01-19T22:59:29.009Z,65.16
2019-01-19T23:02:26.156Z,64.68
2019-01-19T23:08:28.246Z,64.44
2019-01-19T23:20:20.598Z,65.09
2019-01-19T23:23:05.965Z,65.18
2019-01-19T23:25:44.005Z,65.92
2019-01-19T23:28:16.568Z,65.91
2019-01-19T23:31:19.881Z,65.46
2019-01-19T23:36:58.716Z,65.33
2019-01-19T23:40:02.431Z,65.58
2019-01-19T23:42:36.753Z,65.69
2019-01-19T23:50:56.841Z,63.34
2019-01-19T23:56:18.740Z,62.65
2019-01-19T23:59:09.977Z,62.44
